Terminal Aerodrome Forecast
Issued by NWS

Home | Current Version | Previous Version | Text Only | Print | Product List | Glossary On
Versions: 1 2 3 4 5 6 7 8 9 10 11 12 13 14 15 16
000
FTUS43 KICT 311745
TAFHUT
TAF
KHUT 311745Z 3118/0118 17014KT 6SM -RA BR SCT007 OVC009
     FM010600 24009KT P6SM -RA SCT005 OVC007
     FM011000 33018G25KT P6SM SCT007 BKN015=

USA.gov is the U.S. government's official web portal to all federal, state and local government web resources and services.